Eagle — WBP2187 — position and weather

sailwx.info

Track history (hours):
 
Tides and Currents Weather Stations Pressure Air Temp Water Temp Dewpoint Dewpoint Depression Visibility Wind Speed Wind Dir Waves Ship Positions

Eagle

Owner: Harley Marine Services, INC, SEATTLE, WA. More information available from US FCC via Universal Licensing System and Coast Guard Vessel Documentation Center.

Last reported at 2016-Feb-06 12:33 UTC. Time now 2016-Feb-06 23:26 UTC.
Position N 47°17' W 122°25'.

Length 32 m; draft 4 m.

Type: Tow > 200 m length. MMSI: 366978690.

Date/timePositionNaut miles runAvg speedWind from/ knotsBaromVisibWave heightAir tempDewpointWater temp
2016-Feb-06 12:33N 47°17' W 122°25'2 2.0
2016-Feb-06 11:33N 47°17' W 122°28'5 5.0
2016-Feb-06 10:33N 47°22' W 122°24'6 5.8
2016-Feb-06 09:33N 47°28' W 122°25'7 6.7
2016-Feb-06 08:33N 47°34' W 122°28'7 6.8
2016-Feb-06 07:33N 47°41' W 122°28'7 7.1
2016-Feb-06 06:33N 47°48' W 122°28'7 7.2
2016-Feb-06 05:33N 47°55' W 122°30'6 6.2
2016-Feb-06 04:33N 47°59' W 122°37'11 3.8
2016-Feb-06 01:33N 48°09' W 122°45'4 3.2
2016-Feb-06 00:26N 48°12' W 122°48'6 4.9
2016-Feb-05 23:12N 48°18' W 122°47'4 5.7
2016-Feb-05 22:33N 48°22' W 122°46'5 5.4
2016-Feb-05 21:33N 48°27' W 122°45'5 5.3
2016-Feb-05 20:33N 48°33' W 122°45'6 5.7
2016-Feb-05 19:33N 48°38' W 122°44'6 5.7
2016-Feb-05 18:33N 48°44' W 122°46'6 5.1
2016-Feb-05 17:29N 48°49' W 122°43'0 0.3
2016-Feb-05 16:12N 48°50' W 122°43'0 0.0
2016-Feb-05 15:33N 48°50' W 122°43'0 0.0
2016-Feb-05 14:33N 48°50' W 122°43'0 0.0
2016-Feb-05 13:32N 48°50' W 122°43'0 0.0
2016-Feb-05 12:32N 48°50' W 122°43'0 0.0
2016-Feb-05 11:30N 48°50' W 122°43'1 0.2
2016-Feb-05 03:31N 48°48' W 122°44'7 7.3
2016-Feb-05 02:33N 48°42' W 122°43'7 7.2
2016-Feb-05 01:33N 48°35' W 122°45'7 7.1
2016-Feb-05 00:33N 48°27' W 122°44'28 9.3
2016-Feb-04 21:32N 47°60' W 122°36'9 9.7
2016-Feb-04 20:33N 47°52' W 122°28'1010.1
2016-Feb-04 19:33N 47°42' W 122°27'1010.2
2016-Feb-04 18:33N 47°32' W 122°25'10 9.8
2016-Feb-04 17:33N 47°22' W 122°22'7 6.5
2016-Feb-04 16:32N 47°16' W 122°25'0 0.3
2016-Feb-04 15:31N 47°16' W 122°25'0 0.0
2016-Feb-04 14:29N 47°16' W 122°25'0 0.0
2016-Feb-04 13:32N 47°16' W 122°25'0 0.0
2016-Feb-04 12:32N 47°16' W 122°25'0 0.0
2016-Feb-04 11:32N 47°16' W 122°25'0 0.0
2016-Feb-04 10:33N 47°16' W 122°25'0 0.0
2016-Feb-04 08:05N 47°16' W 122°25'0 0.0
2016-Feb-04 07:22N 47°16' W 122°25'0 0.0
2016-Feb-04 05:18N 47°16' W 122°25'0 0.2
2016-Feb-04 04:33N 47°16' W 122°25'1 1.4
2016-Feb-04 03:33N 47°16' W 122°23'0 0.0
2016-Feb-04 02:33N 47°16' W 122°23'0 0.0
2016-Feb-04 01:33N 47°16' W 122°23'1 0.4
2016-Feb-04 00:09N 47°16' W 122°24'0 0.8
2016-Feb-03 23:33N 47°16' W 122°23'0 0.0
2016-Feb-03 22:33N 47°16' W 122°23'0 0.0
2016-Feb-03 21:33N 47°16' W 122°23'0 0.0
2016-Feb-03 20:33N 47°16' W 122°23'0 0.0
2016-Feb-03 19:31N 47°16' W 122°23'0 0.0
2016-Feb-03 17:33N 47°16' W 122°23'0 0.0
2016-Feb-03 16:33N 47°16' W 122°23'0 0.2
2016-Feb-03 15:24N 47°16' W 122°23'0 0.0
2016-Feb-03 14:11N 47°16' W 122°23'0 0.0
2016-Feb-03 13:22N 47°16' W 122°23'0 0.0
2016-Feb-03 12:32N 47°16' W 122°23'0 0.0
2016-Feb-03 11:33N 47°16' W 122°23'0 0.0
2016-Feb-03 10:33N 47°16' W 122°23'0 0.0
2016-Feb-03 09:33N 47°16' W 122°23'0 0.0
2016-Feb-03 08:33N 47°16' W 122°23'0 0.0
2016-Feb-03 07:33N 47°16' W 122°23'0 0.0
2016-Feb-03 06:33N 47°16' W 122°23'0 0.0
2016-Feb-03 05:30N 47°16' W 122°23'0 0.0
2016-Feb-03 04:32N 47°16' W 122°23'0 0.0
2016-Feb-03 02:33N 47°16' W 122°23'0 0.0
2016-Feb-03 00:33N 47°16' W 122°23'2 1.9
2016-Feb-02 23:33N 47°17' W 122°25'1 0.1
2016-Feb-02 12:28N 47°17' W 122°24'2 2.3
2016-Feb-02 11:33N 47°18' W 122°27'3 2.9
2016-Feb-02 10:33N 47°20' W 122°26'5 4.9
2016-Feb-02 09:33N 47°25' W 122°23'6 6.0
2016-Feb-02 08:34N 47°31' W 122°26'6 5.9
2016-Feb-02 07:34N 47°36' W 122°28'6 6.1
2016-Feb-02 06:34N 47°43' W 122°28'7 6.7
2016-Feb-02 05:33N 47°49' W 122°28'7 6.8
2016-Feb-02 04:34N 47°56' W 122°31'7 6.8
2016-Feb-02 03:31N 48°01' W 122°38'7 6.6
2016-Feb-02 02:29N 48°07' W 122°42'6 6.3
2016-Feb-02 01:29N 48°12' W 122°48'5 5.6
2016-Feb-02 00:31N 48°17' W 122°48'7 7.2
2016-Feb-01 23:33N 48°24' W 122°45'8 8.3
2016-Feb-01 22:34N 48°33' W 122°45'8 8.1
2016-Feb-01 21:34N 48°41' W 122°44'7 6.6
2016-Feb-01 20:33N 48°47' W 122°45'3 2.5
2016-Feb-01 19:32N 48°50' W 122°43'0 0.0
2016-Feb-01 18:30N 48°50' W 122°43'0 0.0
2016-Feb-01 16:18N 48°50' W 122°43'0 0.0
2016-Feb-01 15:32N 48°50' W 122°43'0 0.0
2016-Feb-01 14:33N 48°50' W 122°43'0 0.0
2016-Feb-01 13:32N 48°50' W 122°43'0 0.0
2016-Feb-01 12:33N 48°50' W 122°43'0 0.0
2016-Feb-01 11:33N 48°50' W 122°43'0 0.0
2016-Feb-01 10:30N 48°50' W 122°43'0 0.0
2016-Feb-01 09:08N 48°50' W 122°43'0 0.0
2016-Feb-01 08:31N 48°50' W 122°43'0 0.0
2016-Feb-01 07:25N 48°50' W 122°43'0 0.0
2016-Feb-01 05:33N 48°50' W 122°43'0 0.0
2016-Feb-01 04:32N 48°50' W 122°43'0 0.0
2016-Feb-01 02:23N 48°50' W 122°43'0 0.0
2016-Feb-01 01:32N 48°50' W 122°43'0 0.0
2016-Feb-01 00:30N 48°50' W 122°43'0 0.0
2016-Jan-31 23:31N 48°50' W 122°43'0 0.0
2016-Jan-31 15:25N 48°50' W 122°43'1 0.9
2016-Jan-31 14:30N 48°50' W 122°45'5 5.4
2016-Jan-31 13:33N 48°45' W 122°45'7 7.4
2016-Jan-31 12:34N 48°38' W 122°39'7 7.3
2016-Jan-31 11:33N 48°32' W 122°34'2 2.1
2016-Jan-31 10:33N 48°31' W 122°37'0 0.0
2016-Jan-31 09:33N 48°31' W 122°37'0 0.0
2016-Jan-31 08:33N 48°31' W 122°37'0 0.0
2016-Jan-31 07:33N 48°31' W 122°37'0 0.0
2016-Jan-31 06:33N 48°31' W 122°37'0 0.0
2016-Jan-31 05:33N 48°31' W 122°37'0 0.0
2016-Jan-31 04:33N 48°31' W 122°37'0 0.0
2016-Jan-31 03:33N 48°31' W 122°37'0 0.0
2016-Jan-31 02:33N 48°31' W 122°37'0 0.0
2016-Jan-31 01:33N 48°31' W 122°37'0 0.0
2016-Jan-31 00:33N 48°31' W 122°37'0 0.0
2016-Jan-30 23:33N 48°31' W 122°37'0 0.0
2016-Jan-30 22:33N 48°31' W 122°37'0 0.0
2016-Jan-30 21:33N 48°31' W 122°37'0 0.0
2016-Jan-30 20:33N 48°31' W 122°37'0 0.0
2016-Jan-30 19:33N 48°31' W 122°37'0 0.0
2016-Jan-30 18:33N 48°31' W 122°37'0 0.0
2016-Jan-30 17:33N 48°31' W 122°37'0 0.0
2016-Jan-30 16:33N 48°31' W 122°37'0 0.0
2016-Jan-30 15:33N 48°31' W 122°37'0 0.0
2016-Jan-30 14:33N 48°31' W 122°37'0 0.0
2016-Jan-30 13:33N 48°31' W 122°37'0 0.0
2016-Jan-30 12:33N 48°31' W 122°37'0 0.0
2016-Jan-30 11:33N 48°31' W 122°37'0 0.0
2016-Jan-30 10:33N 48°31' W 122°37'0 0.0
2016-Jan-30 09:33N 48°31' W 122°37'0 0.0
2016-Jan-30 08:33N 48°31' W 122°37'0 0.0
2016-Jan-30 07:33N 48°31' W 122°37'0 0.0
2016-Jan-30 06:33N 48°31' W 122°37'0 0.0
2016-Jan-30 05:33N 48°31' W 122°37'0 0.0
2016-Jan-30 04:33N 48°31' W 122°37'0 0.0
2016-Jan-30 03:33N 48°31' W 122°37'0 0.0
2016-Jan-30 02:33N 48°31' W 122°37'0 0.0
2016-Jan-30 01:33N 48°31' W 122°37'2 1.8
2016-Jan-30 00:33N 48°31' W 122°34'2 1.8
2016-Jan-29 23:33N 48°31' W 122°37'0 0.0
2016-Jan-29 22:33N 48°31' W 122°37'0 0.0
2016-Jan-29 21:33N 48°31' W 122°37'0 0.0
2016-Jan-29 20:33N 48°31' W 122°37'0 0.0
2016-Jan-29 19:33N 48°31' W 122°37'0 0.0
2016-Jan-29 18:33N 48°31' W 122°37'0 0.0
2016-Jan-29 17:33N 48°31' W 122°37'0 0.0
2016-Jan-29 16:33N 48°31' W 122°37'0 0.0
2016-Jan-29 15:33N 48°31' W 122°37'0 0.0
2016-Jan-29 14:33N 48°31' W 122°37'0 0.0
2016-Jan-29 13:33N 48°31' W 122°37'0 0.0
2016-Jan-29 12:33N 48°31' W 122°37'0 0.0
2016-Jan-29 11:33N 48°31' W 122°37'0 0.0
2016-Jan-29 10:33N 48°31' W 122°37'0 0.0
2016-Jan-29 09:33N 48°31' W 122°37'0 0.0
2016-Jan-29 08:33N 48°31' W 122°37'0 0.0
2016-Jan-29 07:33N 48°31' W 122°37'0 0.0
2016-Jan-29 06:33N 48°31' W 122°37'0 0.0
2016-Jan-29 05:33N 48°31' W 122°37'2 2.4
2016-Jan-29 04:33N 48°33' W 122°34'7 7.1
2016-Jan-29 03:33N 48°39' W 122°40'7 7.0
2016-Jan-29 02:33N 48°45' W 122°46'6 5.8
2016-Jan-29 01:33N 48°50' W 122°48'3 3.1
2016-Jan-29 00:31N 48°50' W 122°43'0 0.0
2016-Jan-28 20:28N 48°50' W 122°43'0 0.0
2016-Jan-28 19:30N 48°50' W 122°43'0 0.0
2016-Jan-28 18:31N 48°50' W 122°43'2 2.5
2016-Jan-28 17:33N 48°48' W 122°46'2 1.8
2016-Jan-28 16:32N 48°50' W 122°46'1 0.4
2016-Jan-28 15:21N 48°50' W 122°46'2 1.9
2016-Jan-28 14:31N 48°49' W 122°48'1 1.1
2016-Jan-28 13:15N 48°49' W 122°46'2 2.3
2016-Jan-28 12:27N 48°50' W 122°48'5 5.4
2016-Jan-28 11:28N 48°45' W 122°45'6 6.1
2016-Jan-28 10:33N 48°40' W 122°42'5 4.8
2016-Jan-28 09:33N 48°36' W 122°45'5 4.7
2016-Jan-28 08:33N 48°31' W 122°44'4 4.1
2016-Jan-28 07:32N 48°27' W 122°44'4 4.5
2016-Jan-28 06:33N 48°23' W 122°44'19 5.5
2016-Jan-28 03:05N 48°04' W 122°38'3 5.6
2016-Jan-28 02:31N 48°01' W 122°37'5 5.3
2016-Jan-28 01:33N 47°57' W 122°32'5 4.9
2016-Jan-28 00:33N 47°53' W 122°28'5 5.5
2016-Jan-27 23:33N 47°48' W 122°26'6 5.7
2016-Jan-27 22:33N 47°42' W 122°27'6 5.8
2016-Jan-27 21:33N 47°37' W 122°23'2 2.1
2016-Jan-27 20:33N 47°35' W 122°21'0 0.1
2016-Jan-27 19:33N 47°35' W 122°21'0 0.0
2016-Jan-27 18:33N 47°35' W 122°21'0 0.0
2016-Jan-27 17:33N 47°35' W 122°21'0 0.0
2016-Jan-27 16:33N 47°35' W 122°21'0 0.0
2016-Jan-27 15:33N 47°35' W 122°21'0 0.0
2016-Jan-27 14:33N 47°35' W 122°21'0 0.0
2016-Jan-27 13:33N 47°35' W 122°21'0 0.0
2016-Jan-27 12:33N 47°35' W 122°21'  
Track history (hours):
 
Tides and Currents Weather Stations Pressure Air Temp Water Temp Dewpoint Dewpoint Depression Visibility Wind Speed Wind Dir Waves Ship Positions

Eagle

Owner: Harley Marine Services, INC, SEATTLE, WA. More information available from US FCC via Universal Licensing System and Coast Guard Vessel Documentation Center.

Last reported at 2016-Feb-06 12:33 UTC. Time now 2016-Feb-06 23:26 UTC.
Position N 47°17' W 122°25'.

Length 32 m; draft 4 m.

Type: Tow > 200 m length. MMSI: 366978690.

Date/timePositionNaut miles runAvg speedWind from/ knotsBaromVisibWave heightAir tempDewpointWater temp
2016-Feb-06 12:33N 47°17' W 122°25'2 2.0
2016-Feb-06 11:33N 47°17' W 122°28'5 5.0
2016-Feb-06 10:33N 47°22' W 122°24'6 5.8
2016-Feb-06 09:33N 47°28' W 122°25'7 6.7
2016-Feb-06 08:33N 47°34' W 122°28'7 6.8
2016-Feb-06 07:33N 47°41' W 122°28'7 7.1
2016-Feb-06 06:33N 47°48' W 122°28'7 7.2
2016-Feb-06 05:33N 47°55' W 122°30'6 6.2
2016-Feb-06 04:33N 47°59' W 122°37'11 3.8
2016-Feb-06 01:33N 48°09' W 122°45'4 3.2
2016-Feb-06 00:26N 48°12' W 122°48'6 4.9
2016-Feb-05 23:12N 48°18' W 122°47'4 5.7
2016-Feb-05 22:33N 48°22' W 122°46'5 5.4
2016-Feb-05 21:33N 48°27' W 122°45'5 5.3
2016-Feb-05 20:33N 48°33' W 122°45'6 5.7
2016-Feb-05 19:33N 48°38' W 122°44'6 5.7
2016-Feb-05 18:33N 48°44' W 122°46'6 5.1
2016-Feb-05 17:29N 48°49' W 122°43'0 0.3
2016-Feb-05 16:12N 48°50' W 122°43'0 0.0
2016-Feb-05 15:33N 48°50' W 122°43'0 0.0
2016-Feb-05 14:33N 48°50' W 122°43'0 0.0
2016-Feb-05 13:32N 48°50' W 122°43'0 0.0
2016-Feb-05 12:32N 48°50' W 122°43'0 0.0
2016-Feb-05 11:30N 48°50' W 122°43'1 0.2
2016-Feb-05 03:31N 48°48' W 122°44'7 7.3
2016-Feb-05 02:33N 48°42' W 122°43'7 7.2
2016-Feb-05 01:33N 48°35' W 122°45'7 7.1
2016-Feb-05 00:33N 48°27' W 122°44'28 9.3
2016-Feb-04 21:32N 47°60' W 122°36'9 9.7
2016-Feb-04 20:33N 47°52' W 122°28'1010.1
2016-Feb-04 19:33N 47°42' W 122°27'1010.2
2016-Feb-04 18:33N 47°32' W 122°25'10 9.8
2016-Feb-04 17:33N 47°22' W 122°22'7 6.5
2016-Feb-04 16:32N 47°16' W 122°25'0 0.3
2016-Feb-04 15:31N 47°16' W 122°25'0 0.0
2016-Feb-04 14:29N 47°16' W 122°25'0 0.0
2016-Feb-04 13:32N 47°16' W 122°25'0 0.0
2016-Feb-04 12:32N 47°16' W 122°25'0 0.0
2016-Feb-04 11:32N 47°16' W 122°25'0 0.0
2016-Feb-04 10:33N 47°16' W 122°25'0 0.0
2016-Feb-04 08:05N 47°16' W 122°25'0 0.0
2016-Feb-04 07:22N 47°16' W 122°25'0 0.0
2016-Feb-04 05:18N 47°16' W 122°25'0 0.2
2016-Feb-04 04:33N 47°16' W 122°25'1 1.4
2016-Feb-04 03:33N 47°16' W 122°23'0 0.0
2016-Feb-04 02:33N 47°16' W 122°23'0 0.0
2016-Feb-04 01:33N 47°16' W 122°23'1 0.4
2016-Feb-04 00:09N 47°16' W 122°24'0 0.8
2016-Feb-03 23:33N 47°16' W 122°23'0 0.0
2016-Feb-03 22:33N 47°16' W 122°23'0 0.0
2016-Feb-03 21:33N 47°16' W 122°23'0 0.0
2016-Feb-03 20:33N 47°16' W 122°23'0 0.0
2016-Feb-03 19:31N 47°16' W 122°23'0 0.0
2016-Feb-03 17:33N 47°16' W 122°23'0 0.0
2016-Feb-03 16:33N 47°16' W 122°23'0 0.2
2016-Feb-03 15:24N 47°16' W 122°23'0 0.0
2016-Feb-03 14:11N 47°16' W 122°23'0 0.0
2016-Feb-03 13:22N 47°16' W 122°23'0 0.0
2016-Feb-03 12:32N 47°16' W 122°23'0 0.0
2016-Feb-03 11:33N 47°16' W 122°23'0 0.0
2016-Feb-03 10:33N 47°16' W 122°23'0 0.0
2016-Feb-03 09:33N 47°16' W 122°23'0 0.0
2016-Feb-03 08:33N 47°16' W 122°23'0 0.0
2016-Feb-03 07:33N 47°16' W 122°23'0 0.0
2016-Feb-03 06:33N 47°16' W 122°23'0 0.0
2016-Feb-03 05:30N 47°16' W 122°23'0 0.0
2016-Feb-03 04:32N 47°16' W 122°23'0 0.0
2016-Feb-03 02:33N 47°16' W 122°23'0 0.0
2016-Feb-03 00:33N 47°16' W 122°23'2 1.9
2016-Feb-02 23:33N 47°17' W 122°25'1 0.1
2016-Feb-02 12:28N 47°17' W 122°24'2 2.3
2016-Feb-02 11:33N 47°18' W 122°27'3 2.9
2016-Feb-02 10:33N 47°20' W 122°26'5 4.9
2016-Feb-02 09:33N 47°25' W 122°23'6 6.0
2016-Feb-02 08:34N 47°31' W 122°26'6 5.9
2016-Feb-02 07:34N 47°36' W 122°28'6 6.1
2016-Feb-02 06:34N 47°43' W 122°28'7 6.7
2016-Feb-02 05:33N 47°49' W 122°28'7 6.8
2016-Feb-02 04:34N 47°56' W 122°31'7 6.8
2016-Feb-02 03:31N 48°01' W 122°38'7 6.6
2016-Feb-02 02:29N 48°07' W 122°42'6 6.3
2016-Feb-02 01:29N 48°12' W 122°48'5 5.6
2016-Feb-02 00:31N 48°17' W 122°48'7 7.2
2016-Feb-01 23:33N 48°24' W 122°45'8 8.3
2016-Feb-01 22:34N 48°33' W 122°45'8 8.1
2016-Feb-01 21:34N 48°41' W 122°44'7 6.6
2016-Feb-01 20:33N 48°47' W 122°45'3 2.5
2016-Feb-01 19:32N 48°50' W 122°43'0 0.0
2016-Feb-01 18:30N 48°50' W 122°43'0 0.0
2016-Feb-01 16:18N 48°50' W 122°43'0 0.0
2016-Feb-01 15:32N 48°50' W 122°43'0 0.0
2016-Feb-01 14:33N 48°50' W 122°43'0 0.0
2016-Feb-01 13:32N 48°50' W 122°43'0 0.0
2016-Feb-01 12:33N 48°50' W 122°43'0 0.0
2016-Feb-01 11:33N 48°50' W 122°43'0 0.0
2016-Feb-01 10:30N 48°50' W 122°43'0 0.0
2016-Feb-01 09:08N 48°50' W 122°43'0 0.0
2016-Feb-01 08:31N 48°50' W 122°43'0 0.0
2016-Feb-01 07:25N 48°50' W 122°43'0 0.0
2016-Feb-01 05:33N 48°50' W 122°43'0 0.0
2016-Feb-01 04:32N 48°50' W 122°43'0 0.0
2016-Feb-01 02:23N 48°50' W 122°43'0 0.0
2016-Feb-01 01:32N 48°50' W 122°43'0 0.0
2016-Feb-01 00:30N 48°50' W 122°43'0 0.0
2016-Jan-31 23:31N 48°50' W 122°43'0 0.0
2016-Jan-31 15:25N 48°50' W 122°43'1 0.9
2016-Jan-31 14:30N 48°50' W 122°45'5 5.4
2016-Jan-31 13:33N 48°45' W 122°45'7 7.4
2016-Jan-31 12:34N 48°38' W 122°39'7 7.3
2016-Jan-31 11:33N 48°32' W 122°34'2 2.1
2016-Jan-31 10:33N 48°31' W 122°37'0 0.0
2016-Jan-31 09:33N 48°31' W 122°37'0 0.0
2016-Jan-31 08:33N 48°31' W 122°37'0 0.0
2016-Jan-31 07:33N 48°31' W 122°37'0 0.0
2016-Jan-31 06:33N 48°31' W 122°37'0 0.0
2016-Jan-31 05:33N 48°31' W 122°37'0 0.0
2016-Jan-31 04:33N 48°31' W 122°37'0 0.0
2016-Jan-31 03:33N 48°31' W 122°37'0 0.0
2016-Jan-31 02:33N 48°31' W 122°37'0 0.0
2016-Jan-31 01:33N 48°31' W 122°37'0 0.0
2016-Jan-31 00:33N 48°31' W 122°37'0 0.0
2016-Jan-30 23:33N 48°31' W 122°37'0 0.0
2016-Jan-30 22:33N 48°31' W 122°37'0 0.0
2016-Jan-30 21:33N 48°31' W 122°37'0 0.0
2016-Jan-30 20:33N 48°31' W 122°37'0 0.0
2016-Jan-30 19:33N 48°31' W 122°37'0 0.0
2016-Jan-30 18:33N 48°31' W 122°37'0 0.0
2016-Jan-30 17:33N 48°31' W 122°37'0 0.0
2016-Jan-30 16:33N 48°31' W 122°37'0 0.0
2016-Jan-30 15:33N 48°31' W 122°37'0 0.0
2016-Jan-30 14:33N 48°31' W 122°37'0 0.0
2016-Jan-30 13:33N 48°31' W 122°37'0 0.0
2016-Jan-30 12:33N 48°31' W 122°37'0 0.0
2016-Jan-30 11:33N 48°31' W 122°37'0 0.0
2016-Jan-30 10:33N 48°31' W 122°37'0 0.0
2016-Jan-30 09:33N 48°31' W 122°37'0 0.0
2016-Jan-30 08:33N 48°31' W 122°37'0 0.0
2016-Jan-30 07:33N 48°31' W 122°37'0 0.0
2016-Jan-30 06:33N 48°31' W 122°37'0 0.0
2016-Jan-30 05:33N 48°31' W 122°37'0 0.0
2016-Jan-30 04:33N 48°31' W 122°37'0 0.0
2016-Jan-30 03:33N 48°31' W 122°37'0 0.0
2016-Jan-30 02:33N 48°31' W 122°37'0 0.0
2016-Jan-30 01:33N 48°31' W 122°37'2 1.8
2016-Jan-30 00:33N 48°31' W 122°34'2 1.8
2016-Jan-29 23:33N 48°31' W 122°37'0 0.0
2016-Jan-29 22:33N 48°31' W 122°37'0 0.0
2016-Jan-29 21:33N 48°31' W 122°37'0 0.0
2016-Jan-29 20:33N 48°31' W 122°37'0 0.0
2016-Jan-29 19:33N 48°31' W 122°37'0 0.0
2016-Jan-29 18:33N 48°31' W 122°37'0 0.0
2016-Jan-29 17:33N 48°31' W 122°37'0 0.0
2016-Jan-29 16:33N 48°31' W 122°37'0 0.0
2016-Jan-29 15:33N 48°31' W 122°37'0 0.0
2016-Jan-29 14:33N 48°31' W 122°37'0 0.0
2016-Jan-29 13:33N 48°31' W 122°37'0 0.0
2016-Jan-29 12:33N 48°31' W 122°37'0 0.0
2016-Jan-29 11:33N 48°31' W 122°37'0 0.0
2016-Jan-29 10:33N 48°31' W 122°37'0 0.0
2016-Jan-29 09:33N 48°31' W 122°37'0 0.0
2016-Jan-29 08:33N 48°31' W 122°37'0 0.0
2016-Jan-29 07:33N 48°31' W 122°37'0 0.0
2016-Jan-29 06:33N 48°31' W 122°37'0 0.0
2016-Jan-29 05:33N 48°31' W 122°37'2 2.4
2016-Jan-29 04:33N 48°33' W 122°34'7 7.1
2016-Jan-29 03:33N 48°39' W 122°40'7 7.0
2016-Jan-29 02:33N 48°45' W 122°46'6 5.8
2016-Jan-29 01:33N 48°50' W 122°48'3 3.1
2016-Jan-29 00:31N 48°50' W 122°43'0 0.0
2016-Jan-28 20:28N 48°50' W 122°43'0 0.0
2016-Jan-28 19:30N 48°50' W 122°43'0 0.0
2016-Jan-28 18:31N 48°50' W 122°43'2 2.5
2016-Jan-28 17:33N 48°48' W 122°46'2 1.8
2016-Jan-28 16:32N 48°50' W 122°46'1 0.4
2016-Jan-28 15:21N 48°50' W 122°46'2 1.9
2016-Jan-28 14:31N 48°49' W 122°48'1 1.1
2016-Jan-28 13:15N 48°49' W 122°46'2 2.3
2016-Jan-28 12:27N 48°50' W 122°48'5 5.4
2016-Jan-28 11:28N 48°45' W 122°45'6 6.1
2016-Jan-28 10:33N 48°40' W 122°42'5 4.8
2016-Jan-28 09:33N 48°36' W 122°45'5 4.7
2016-Jan-28 08:33N 48°31' W 122°44'4 4.1
2016-Jan-28 07:32N 48°27' W 122°44'4 4.5
2016-Jan-28 06:33N 48°23' W 122°44'19 5.5
2016-Jan-28 03:05N 48°04' W 122°38'3 5.6
2016-Jan-28 02:31N 48°01' W 122°37'5 5.3
2016-Jan-28 01:33N 47°57' W 122°32'5 4.9
2016-Jan-28 00:33N 47°53' W 122°28'5 5.5
2016-Jan-27 23:33N 47°48' W 122°26'6 5.7
2016-Jan-27 22:33N 47°42' W 122°27'6 5.8
2016-Jan-27 21:33N 47°37' W 122°23'2 2.1
2016-Jan-27 20:33N 47°35' W 122°21'0 0.1
2016-Jan-27 19:33N 47°35' W 122°21'0 0.0
2016-Jan-27 18:33N 47°35' W 122°21'0 0.0
2016-Jan-27 17:33N 47°35' W 122°21'0 0.0
2016-Jan-27 16:33N 47°35' W 122°21'0 0.0
2016-Jan-27 15:33N 47°35' W 122°21'0 0.0
2016-Jan-27 14:33N 47°35' W 122°21'0 0.0
2016-Jan-27 13:33N 47°35' W 122°21'0 0.0
2016-Jan-27 12:33N 47°35' W 122°21'  

Dump ship's entire track history